createdAt,value
2023-01-13T00:00:38.311Z,100.00
2023-01-13T00:03:06.413Z,100.00
2023-01-13T00:05:34.495Z,100.00
2023-01-13T00:08:04.888Z,100.00
2023-01-13T00:10:33.114Z,100.00
2023-01-13T00:13:03.125Z,100.00
2023-01-13T00:15:31.140Z,100.00
2023-01-13T00:17:59.147Z,100.00
2023-01-13T00:20:29.493Z,99.73
2023-01-13T00:22:58.845Z,99.54
2023-01-13T00:25:26.861Z,99.70
2023-01-13T00:27:55.325Z,100.00
2023-01-13T00:30:24.731Z,99.76
2023-01-13T00:32:52.703Z,99.46
2023-01-13T00:35:20.703Z,99.37
2023-01-13T00:37:48.673Z,100.00
2023-01-13T00:40:16.692Z,99.89
2023-01-13T00:42:58.549Z,99.53
2023-01-13T00:45:27.967Z,100.00
2023-01-13T00:47:55.962Z,100.00
2023-01-13T00:50:23.989Z,100.00
2023-01-13T00:52:51.956Z,100.00
2023-01-13T00:55:19.918Z,100.00
2023-01-13T00:57:47.855Z,99.47
2023-01-13T01:00:16.335Z,98.32
2023-01-13T01:02:45.838Z,98.63
2023-01-13T01:05:13.970Z,99.15
2023-01-13T01:07:42.094Z,98.95
2023-01-13T01:10:11.452Z,100.00
2023-01-13T01:12:39.493Z,99.89
2023-01-13T01:15:10.036Z,99.11
2023-01-13T01:17:38.303Z,100.00
2023-01-13T01:20:09.033Z,100.00
2023-01-13T01:22:36.954Z,100.00
2023-01-13T01:25:05.460Z,100.00
2023-01-13T01:27:33.465Z,100.00
2023-01-13T01:30:01.538Z,100.00
2023-01-13T01:32:29.634Z,100.00
2023-01-13T01:34:57.638Z,100.00
2023-01-13T01:37:26.987Z,100.00
2023-01-13T01:39:55.073Z,100.00
2023-01-13T01:42:41.801Z,100.00
2023-01-13T01:45:18.848Z,100.00
2023-01-13T01:47:50.163Z,100.00
2023-01-13T01:50:19.389Z,100.00
2023-01-13T01:52:54.390Z,100.00
2023-01-13T01:55:24.975Z,100.00
2023-01-13T01:57:57.308Z,100.00
2023-01-13T02:00:27.599Z,100.00
2023-01-13T02:02:55.935Z,100.00
2023-01-13T02:05:24.313Z,100.00
2023-01-13T02:07:57.796Z,100.00
2023-01-13T02:10:27.709Z,100.00
2023-01-13T02:12:58.043Z,97.71
2023-01-13T02:15:33.086Z,96.72
2023-01-13T02:18:32.701Z,95.09
2023-01-13T02:21:29.455Z,95.37
2023-01-13T02:24:47.457Z,95.79
2023-01-13T02:29:02.405Z,100.00
2023-01-13T02:32:33.928Z,100.00
2023-01-13T02:36:07.389Z,100.00
2023-01-13T02:38:38.239Z,92.05
2023-01-13T02:41:29.880Z,91.48
2023-01-13T02:44:08.071Z,90.92
2023-01-13T02:46:44.981Z,89.47
2023-01-13T02:49:18.417Z,90.76
2023-01-13T02:52:47.625Z,100.00
2023-01-13T02:55:21.895Z,90.76
2023-01-13T02:57:51.733Z,90.27
2023-01-13T03:00:21.364Z,91.92
2023-01-13T03:02:50.803Z,92.51
2023-01-13T03:05:18.878Z,91.09
2023-01-13T03:07:59.332Z,91.24
2023-01-13T03:10:47.469Z,89.30
2023-01-13T03:13:31.889Z,88.05
2023-01-13T03:16:11.969Z,88.60
2023-01-13T03:18:48.650Z,87.53
2023-01-13T03:21:22.562Z,89.77
2023-01-13T03:23:53.703Z,86.16
2023-01-13T03:26:27.784Z,84.78
2023-01-13T03:29:02.000Z,85.37
2023-01-13T03:31:35.613Z,85.10
2023-01-13T03:34:08.346Z,86.60
2023-01-13T03:36:40.635Z,82.51
2023-01-13T03:39:13.208Z,81.78
2023-01-13T03:41:47.005Z,81.73
2023-01-13T03:44:24.523Z,84.23
2023-01-13T03:47:02.105Z,82.38
2023-01-13T03:49:38.595Z,83.08
2023-01-13T03:52:10.923Z,83.03
2023-01-13T03:54:45.391Z,82.53
2023-01-13T03:57:16.505Z,80.21
2023-01-13T03:59:49.960Z,79.60
2023-01-13T04:02:24.968Z,81.32
2023-01-13T04:04:59.506Z,81.49
2023-01-13T04:07:38.245Z,80.74
2023-01-13T04:10:08.726Z,84.61
2023-01-13T04:12:59.160Z,81.76
2023-01-13T04:15:29.627Z,80.97
2023-01-13T04:18:04.194Z,82.85
2023-01-13T04:20:33.513Z,83.27
2023-01-13T04:23:01.450Z,84.08
2023-01-13T04:25:29.345Z,83.14
2023-01-13T04:27:57.321Z,84.90
2023-01-13T04:30:25.288Z,84.46
2023-01-13T04:32:53.239Z,84.80
2023-01-13T04:35:21.171Z,85.09
2023-01-13T04:37:50.431Z,88.13
2023-01-13T04:40:18.552Z,85.84
2023-01-13T04:42:47.303Z,83.64
2023-01-13T04:45:15.752Z,84.98
2023-01-13T04:47:43.687Z,84.66
2023-01-13T04:50:12.926Z,84.30
2023-01-13T04:52:41.155Z,83.86
2023-01-13T04:55:11.517Z,85.01
2023-01-13T04:57:39.488Z,85.60
2023-01-13T05:00:10.368Z,85.99
2023-01-13T05:02:38.290Z,86.47
2023-01-13T05:05:07.361Z,86.68
2023-01-13T05:07:35.437Z,86.10
2023-01-13T05:10:03.422Z,86.43
2023-01-13T05:12:50.629Z,83.32
2023-01-13T05:15:36.100Z,85.49
2023-01-13T05:18:04.689Z,83.17
2023-01-13T05:20:32.634Z,85.07
2023-01-13T05:23:18.216Z,84.84
2023-01-13T05:25:49.056Z,85.52
2023-01-13T05:28:18.410Z,87.24
2023-01-13T05:30:49.310Z,87.08
2023-01-13T05:33:20.252Z,86.58
2023-01-13T05:35:48.879Z,86.26
2023-01-13T05:38:18.522Z,86.94
2023-01-13T05:41:04.379Z,86.36
2023-01-13T05:43:34.850Z,86.72
2023-01-13T05:46:05.118Z,87.20
2023-01-13T05:48:34.576Z,86.69
2023-01-13T05:51:03.387Z,85.52
2023-01-13T05:53:31.833Z,85.15
2023-01-13T05:56:00.250Z,86.95
2023-01-13T05:58:28.826Z,88.51
2023-01-13T06:01:02.515Z,88.54
2023-01-13T06:03:30.760Z,86.66
2023-01-13T06:06:03.790Z,86.96
2023-01-13T06:08:32.741Z,84.46
2023-01-13T06:11:03.728Z,82.85
2023-01-13T06:13:31.628Z,82.62
2023-01-13T06:16:01.277Z,81.60
2023-01-13T06:18:29.803Z,82.55
2023-01-13T06:20:58.297Z,80.58
2023-01-13T06:23:26.316Z,80.42
2023-01-13T06:26:01.293Z,80.83
2023-01-13T06:28:29.174Z,80.34
2023-01-13T06:30:59.958Z,81.20
2023-01-13T06:33:32.883Z,80.13
2023-01-13T06:36:04.275Z,79.49
2023-01-13T06:38:37.357Z,80.43
2023-01-13T06:41:08.197Z,79.95
2023-01-13T06:43:35.229Z,80.96
2023-01-13T06:46:03.483Z,80.37
2023-01-13T06:48:35.353Z,80.31
2023-01-13T06:51:04.475Z,81.06
2023-01-13T06:53:32.980Z,80.48
2023-01-13T06:56:00.901Z,81.98
2023-01-13T06:58:28.840Z,81.51
2023-01-13T07:01:01.412Z,81.27
2023-01-13T07:03:29.490Z,80.75
2023-01-13T07:05:58.884Z,81.92
2023-01-13T07:08:26.936Z,80.45
2023-01-13T07:10:55.214Z,80.88
2023-01-13T07:13:49.171Z,80.51
2023-01-13T07:16:17.105Z,81.15
2023-01-13T07:18:44.979Z,80.62
2023-01-13T07:21:18.684Z,80.23
2023-01-13T07:23:47.870Z,80.84
2023-01-13T07:26:16.562Z,81.29
2023-01-13T07:28:44.552Z,80.58
2023-01-13T07:31:17.135Z,79.93
2023-01-13T07:33:45.142Z,80.21
2023-01-13T07:36:15.581Z,81.13
2023-01-13T07:38:44.477Z,79.56
2023-01-13T07:41:30.893Z,80.12
2023-01-13T07:44:00.172Z,79.13
2023-01-13T07:46:28.141Z,79.11
2023-01-13T07:48:56.019Z,79.65
2023-01-13T07:51:25.284Z,78.04
2023-01-13T07:53:53.351Z,77.62
2023-01-13T07:56:21.420Z,77.04
2023-01-13T07:58:51.013Z,78.41
2023-01-13T08:01:20.346Z,77.39
2023-01-13T08:03:48.521Z,76.89
2023-01-13T08:06:16.775Z,77.04
2023-01-13T08:08:46.412Z,77.07
2023-01-13T08:11:14.385Z,76.63
2023-01-13T08:13:42.357Z,76.72
2023-01-13T08:16:12.451Z,76.34
2023-01-13T08:18:40.914Z,76.72
2023-01-13T08:21:10.840Z,76.49
2023-01-13T08:23:38.906Z,77.43
2023-01-13T08:26:10.327Z,76.87
2023-01-13T08:28:40.367Z,77.76
2023-01-13T08:31:11.584Z,77.42
2023-01-13T08:33:41.739Z,77.14
2023-01-13T08:36:12.228Z,77.24
2023-01-13T08:38:41.466Z,77.12
2023-01-13T08:41:37.624Z,76.50
2023-01-13T08:44:07.011Z,76.61
2023-01-13T08:46:35.038Z,77.72
2023-01-13T08:49:03.362Z,77.85
2023-01-13T08:51:31.346Z,77.21
2023-01-13T08:54:57.917Z,100.00
2023-01-13T08:58:16.288Z,77.21
2023-01-13T09:00:45.574Z,74.91
2023-01-13T09:03:13.603Z,74.97
2023-01-13T09:06:09.034Z,74.97
2023-01-13T09:08:38.150Z,75.94
2023-01-13T09:11:26.266Z,75.14
2023-01-13T09:13:55.148Z,73.96
2023-01-13T09:16:23.041Z,72.62
2023-01-13T09:18:50.940Z,71.90
2023-01-13T09:21:21.002Z,70.88
2023-01-13T09:23:49.372Z,70.87
2023-01-13T09:26:20.897Z,71.33
2023-01-13T09:28:49.210Z,71.28
2023-01-13T09:31:18.638Z,71.71
2023-01-13T09:34:04.037Z,70.30
2023-01-13T09:36:31.985Z,71.10
2023-01-13T09:38:59.946Z,71.35
2023-01-13T09:41:47.955Z,71.11
2023-01-13T09:44:21.134Z,71.18
2023-01-13T09:46:54.408Z,70.12
2023-01-13T09:49:26.653Z,70.69
2023-01-13T09:51:59.484Z,70.07
2023-01-13T09:54:33.141Z,70.10
2023-01-13T09:57:00.888Z,70.32
2023-01-13T09:59:36.333Z,69.38
2023-01-13T10:02:34.276Z,69.90
2023-01-13T10:05:06.550Z,69.29
2023-01-13T10:07:38.565Z,69.10
2023-01-13T10:10:16.876Z,69.49
2023-01-13T10:13:04.360Z,68.97
2023-01-13T10:15:32.266Z,69.25
2023-01-13T10:18:09.621Z,68.54
2023-01-13T10:20:50.667Z,69.13
2023-01-13T10:23:37.811Z,68.80
2023-01-13T10:26:17.840Z,69.42
2023-01-13T10:28:52.860Z,68.66
2023-01-13T10:31:23.370Z,69.26
2023-01-13T10:33:59.875Z,68.78
2023-01-13T10:36:29.377Z,68.04
2023-01-13T10:39:09.415Z,69.34
2023-01-13T10:41:37.469Z,68.71
2023-01-13T10:44:09.621Z,67.59
2023-01-13T10:46:52.929Z,67.98
2023-01-13T10:49:30.971Z,68.39
2023-01-13T10:51:59.160Z,67.60
2023-01-13T10:54:27.736Z,67.36
2023-01-13T10:57:14.454Z,67.19
2023-01-13T10:59:42.797Z,66.41
2023-01-13T11:02:26.541Z,66.33
2023-01-13T11:05:10.631Z,64.97
2023-01-13T11:07:41.488Z,65.64
2023-01-13T11:10:20.665Z,67.81
2023-01-13T11:12:58.537Z,65.76
2023-01-13T11:15:39.947Z,66.54
2023-01-13T11:18:18.125Z,67.13
2023-01-13T11:20:50.045Z,68.24
2023-01-13T11:23:25.349Z,68.23
2023-01-13T11:25:59.357Z,68.00
2023-01-13T11:29:07.748Z,68.00
2023-01-13T11:32:38.257Z,100.00
2023-01-13T11:35:17.151Z,66.31
2023-01-13T11:37:50.828Z,65.78
2023-01-13T11:40:28.448Z,66.15
2023-01-13T11:43:04.733Z,66.20
2023-01-13T11:45:39.141Z,66.23
2023-01-13T11:48:10.047Z,66.69
2023-01-13T11:50:43.692Z,66.89
2023-01-13T11:53:28.529Z,67.94
2023-01-13T11:56:13.352Z,68.00
2023-01-13T11:59:01.719Z,68.70
2023-01-13T12:01:44.825Z,68.92
2023-01-13T12:04:27.334Z,69.22
2023-01-13T12:07:12.584Z,69.91
2023-01-13T12:09:57.294Z,69.59
2023-01-13T12:12:37.045Z,69.42
2023-01-13T12:15:35.707Z,69.74
2023-01-13T12:18:20.263Z,69.28
2023-01-13T12:21:01.345Z,69.06
2023-01-13T12:23:33.541Z,68.68
2023-01-13T12:26:09.047Z,69.05
2023-01-13T12:28:45.756Z,69.18
2023-01-13T12:31:15.245Z,70.08
2023-01-13T12:34:03.361Z,71.15
2023-01-13T12:36:41.821Z,71.21
2023-01-13T12:39:17.885Z,72.25
2023-01-13T12:42:10.043Z,71.61
2023-01-13T12:44:38.115Z,71.16
2023-01-13T12:47:26.075Z,71.56
2023-01-13T12:50:37.327Z,71.41
2023-01-13T12:53:36.220Z,71.97
2023-01-13T12:56:31.713Z,72.05
2023-01-13T12:59:51.314Z,71.25
2023-01-13T13:02:36.767Z,71.14
2023-01-13T13:05:41.861Z,72.36
2023-01-13T13:08:21.581Z,71.05
2023-01-13T13:11:03.015Z,70.87
2023-01-13T13:13:47.203Z,71.78
2023-01-13T13:17:01.009Z,72.58
2023-01-13T13:19:45.535Z,73.16
2023-01-13T13:22:43.198Z,78.09
2023-01-13T13:26:30.825Z,100.00
2023-01-13T13:30:19.088Z,100.00
2023-01-13T13:34:12.769Z,100.00
2023-01-13T13:38:10.862Z,100.00
2023-01-13T13:42:00.428Z,100.00
2023-01-13T13:46:10.287Z,100.00
2023-01-13T13:49:40.045Z,100.00
2023-01-13T13:53:10.320Z,100.00
2023-01-13T13:56:41.609Z,100.00
2023-01-13T14:00:10.203Z,100.00
2023-01-13T14:03:40.242Z,100.00
2023-01-13T14:07:18.262Z,100.00
2023-01-13T14:10:47.170Z,100.00
2023-01-13T14:14:21.016Z,100.00
2023-01-13T14:17:48.053Z,100.00
2023-01-13T14:21:20.872Z,100.00
2023-01-13T14:24:55.475Z,100.00
2023-01-13T14:28:25.117Z,100.00
2023-01-13T14:31:56.160Z,100.00
2023-01-13T14:35:25.490Z,100.00
2023-01-13T14:39:19.281Z,100.00
2023-01-13T14:42:48.802Z,100.00
2023-01-13T14:46:25.211Z,100.00
2023-01-13T14:49:59.957Z,100.00
2023-01-13T14:53:28.514Z,100.00
2023-01-13T14:57:08.982Z,100.00
2023-01-13T15:00:35.764Z,100.00
2023-01-13T15:04:18.765Z,100.00
2023-01-13T15:07:50.278Z,100.00
2023-01-13T15:11:24.280Z,100.00
2023-01-13T15:14:56.629Z,100.00
2023-01-13T15:18:23.019Z,100.00
2023-01-13T15:21:49.505Z,100.00
2023-01-13T15:25:16.111Z,100.00
2023-01-13T15:28:44.948Z,100.00
2023-01-13T15:32:17.753Z,100.00
2023-01-13T15:35:45.681Z,100.00
2023-01-13T15:39:14.066Z,100.00
2023-01-13T15:42:57.983Z,100.00
2023-01-13T15:46:41.464Z,100.00
2023-01-13T15:50:22.896Z,100.00
2023-01-13T15:53:49.370Z,100.00
2023-01-13T15:57:22.616Z,100.00
2023-01-13T16:00:49.606Z,100.00
2023-01-13T16:04:17.650Z,100.00
2023-01-13T16:07:44.608Z,100.00
2023-01-13T16:11:15.794Z,100.00
2023-01-13T16:14:42.317Z,100.00
2023-01-13T16:18:16.867Z,100.00
2023-01-13T16:21:45.331Z,100.00
2023-01-13T16:25:16.002Z,100.00
2023-01-13T16:28:42.464Z,100.00
2023-01-13T16:32:15.779Z,100.00
2023-01-13T16:35:43.857Z,100.00
2023-01-13T16:39:30.859Z,100.00
2023-01-13T16:42:57.892Z,100.00
2023-01-13T16:46:25.475Z,100.00
2023-01-13T16:49:52.942Z,100.00
2023-01-13T16:53:19.502Z,100.00
2023-01-13T16:56:47.418Z,100.00
2023-01-13T17:00:14.949Z,100.00
2023-01-13T17:03:41.550Z,100.00
2023-01-13T17:07:10.851Z,100.00
2023-01-13T17:10:37.417Z,100.00
2023-01-13T17:14:07.270Z,100.00
2023-01-13T17:17:47.338Z,100.00
2023-01-13T17:21:14.765Z,100.00
2023-01-13T17:24:41.532Z,100.00
2023-01-13T17:28:09.663Z,100.00
2023-01-13T17:31:37.006Z,100.00
2023-01-13T17:35:05.947Z,100.00
2023-01-13T17:38:32.502Z,100.00
2023-01-13T17:42:02.097Z,100.00
2023-01-13T17:45:30.168Z,100.00
2023-01-13T17:48:57.054Z,100.00
2023-01-13T17:52:23.580Z,100.00
2023-01-13T17:55:50.756Z,100.00
2023-01-13T17:59:18.431Z,100.00
2023-01-13T18:02:46.552Z,100.00
2023-01-13T18:06:15.879Z,100.00
2023-01-13T18:09:42.500Z,100.00
2023-01-13T18:13:09.661Z,100.00
2023-01-13T18:16:36.682Z,100.00
2023-01-13T18:20:22.422Z,100.00
2023-01-13T18:24:06.715Z,100.00
2023-01-13T18:27:38.229Z,100.00
2023-01-13T18:31:05.668Z,100.00
2023-01-13T18:34:33.809Z,100.00
2023-01-13T18:38:00.370Z,100.00
2023-01-13T18:41:44.216Z,100.00
2023-01-13T18:45:11.092Z,100.00
2023-01-13T18:48:37.737Z,100.00
2023-01-13T18:52:06.112Z,100.00
2023-01-13T18:55:32.878Z,100.00
2023-01-13T18:58:59.476Z,100.00
2023-01-13T19:02:29.906Z,100.00
2023-01-13T19:06:02.370Z,100.00
2023-01-13T19:09:30.856Z,100.00
2023-01-13T19:12:57.861Z,100.00
2023-01-13T19:16:24.303Z,100.00
2023-01-13T19:19:51.849Z,100.00
2023-01-13T19:23:19.664Z,100.00
2023-01-13T19:26:48.935Z,100.00
2023-01-13T19:30:15.768Z,100.00
2023-01-13T19:33:42.362Z,100.00
2023-01-13T19:37:10.352Z,100.00
2023-01-13T19:40:36.812Z,100.00
2023-01-13T19:44:22.203Z,100.00
2023-01-13T19:47:48.641Z,100.00
2023-01-13T19:51:15.356Z,100.00
2023-01-13T19:54:41.960Z,100.00
2023-01-13T19:58:09.836Z,100.00
2023-01-13T20:01:40.161Z,100.00
2023-01-13T20:05:08.080Z,100.00
2023-01-13T20:08:34.657Z,100.00
2023-01-13T20:12:02.378Z,100.00
2023-01-13T20:15:31.987Z,100.00
2023-01-13T20:18:58.515Z,100.00
2023-01-13T20:22:24.928Z,100.00
2023-01-13T20:25:51.356Z,100.00
2023-01-13T20:29:17.836Z,100.00
2023-01-13T20:32:45.851Z,100.00
2023-01-13T20:36:21.236Z,100.00
2023-01-13T20:39:48.222Z,100.00
2023-01-13T20:43:16.614Z,100.00
2023-01-13T20:46:44.884Z,100.00
2023-01-13T20:50:14.399Z,100.00
2023-01-13T20:53:41.023Z,100.00
2023-01-13T20:57:10.014Z,100.00
2023-01-13T21:00:36.502Z,100.00
2023-01-13T21:04:04.457Z,100.00
2023-01-13T21:07:32.718Z,100.00
2023-01-13T21:11:04.422Z,100.00
2023-01-13T21:14:48.262Z,100.00
2023-01-13T21:18:32.944Z,100.00
2023-01-13T21:22:04.719Z,100.00
2023-01-13T21:25:31.388Z,100.00
2023-01-13T21:28:58.685Z,100.00
2023-01-13T21:32:26.141Z,100.00
2023-01-13T21:35:52.659Z,100.00
2023-01-13T21:39:20.486Z,100.00
2023-01-13T21:43:12.739Z,100.00
2023-01-13T21:46:56.752Z,100.00
2023-01-13T21:50:24.561Z,100.00
2023-01-13T21:53:52.977Z,100.00
2023-01-13T21:57:19.631Z,100.00
2023-01-13T22:00:49.564Z,100.00
2023-01-13T22:04:16.133Z,100.00
2023-01-13T22:07:43.072Z,100.00
2023-01-13T22:11:12.909Z,100.00
2023-01-13T22:14:39.528Z,100.00
2023-01-13T22:18:06.000Z,100.00
2023-01-13T22:21:32.431Z,100.00
2023-01-13T22:24:58.880Z,100.00
2023-01-13T22:28:33.955Z,100.00
2023-01-13T22:32:00.492Z,100.00
2023-01-13T22:35:27.090Z,100.00
2023-01-13T22:38:54.154Z,100.00
2023-01-13T22:42:20.645Z,100.00
2023-01-13T22:45:56.716Z,100.00
2023-01-13T22:49:23.254Z,100.00
2023-01-13T22:52:49.783Z,100.00
2023-01-13T22:56:17.633Z,100.00
2023-01-13T22:59:44.456Z,100.00
2023-01-13T23:03:14.798Z,100.00
2023-01-13T23:06:41.354Z,100.00
2023-01-13T23:10:08.080Z,100.00
2023-01-13T23:13:34.526Z,100.00
2023-01-13T23:17:01.458Z,100.00
2023-01-13T23:20:30.329Z,100.00
2023-01-13T23:23:58.980Z,100.00
2023-01-13T23:27:25.922Z,100.00
2023-01-13T23:30:53.602Z,100.00
2023-01-13T23:34:20.393Z,100.00
2023-01-13T23:37:48.315Z,100.00
2023-01-13T23:41:15.886Z,100.00
2023-01-13T23:44:44.124Z,100.00
2023-01-13T23:48:10.579Z,100.00
2023-01-13T23:51:36.991Z,100.00
2023-01-13T23:55:05.018Z,100.00
2023-01-13T23:58:31.617Z,100.00
